sensor_id;sensor_type;location;lat;lon;timestamp;temperature;humidity
73572;DHT22;61854;48.510;-2.770;2022-07-23T00:00:16;16.60;71.20
73572;DHT22;61854;48.510;-2.770;2022-07-23T00:02:42;16.50;71.40
73572;DHT22;61854;48.510;-2.770;2022-07-23T00:05:08;16.50;71.40
73572;DHT22;61854;48.510;-2.770;2022-07-23T00:07:33;16.50;71.40
73572;DHT22;61854;48.510;-2.770;2022-07-23T00:09:59;16.50;71.40
73572;DHT22;61854;48.510;-2.770;2022-07-23T00:12:25;16.50;71.40
73572;DHT22;61854;48.510;-2.770;2022-07-23T00:14:50;16.50;71.50
73572;DHT22;61854;48.510;-2.770;2022-07-23T00:17:16;16.50;71.40
73572;DHT22;61854;48.510;-2.770;2022-07-23T00:19:42;16.50;71.40
73572;DHT22;61854;48.510;-2.770;2022-07-23T00:22:08;16.50;71.30
73572;DHT22;61854;48.510;-2.770;2022-07-23T00:24:33;16.50;71.40
73572;DHT22;61854;48.510;-2.770;2022-07-23T00:26:59;16.50;71.30
73572;DHT22;61854;48.510;-2.770;2022-07-23T00:29:24;16.50;71.30
73572;DHT22;61854;48.510;-2.770;2022-07-23T00:31:50;16.50;71.30
73572;DHT22;61854;48.510;-2.770;2022-07-23T00:34:16;16.50;71.30
73572;DHT22;61854;48.510;-2.770;2022-07-23T00:36:41;16.50;71.40
73572;DHT22;61854;48.510;-2.770;2022-07-23T00:39:07;16.50;71.40
73572;DHT22;61854;48.510;-2.770;2022-07-23T00:41:32;16.50;71.40
73572;DHT22;61854;48.510;-2.770;2022-07-23T00:44:14;16.50;71.40
73572;DHT22;61854;48.510;-2.770;2022-07-23T00:46:49;16.50;71.40
73572;DHT22;61854;48.510;-2.770;2022-07-23T00:49:15;16.50;71.30
73572;DHT22;61854;48.510;-2.770;2022-07-23T00:51:41;16.50;71.30
73572;DHT22;61854;48.510;-2.770;2022-07-23T00:54:07;16.50;71.40
73572;DHT22;61854;48.510;-2.770;2022-07-23T00:56:33;16.50;71.40
73572;DHT22;61854;48.510;-2.770;2022-07-23T00:59:00;16.50;71.40
73572;DHT22;61854;48.510;-2.770;2022-07-23T01:01:26;16.50;71.40
73572;DHT22;61854;48.510;-2.770;2022-07-23T01:03:52;16.50;71.40
73572;DHT22;61854;48.510;-2.770;2022-07-23T01:06:17;16.40;71.40
73572;DHT22;61854;48.510;-2.770;2022-07-23T01:08:43;16.40;71.50
73572;DHT22;61854;48.510;-2.770;2022-07-23T01:11:08;16.40;71.50
73572;DHT22;61854;48.510;-2.770;2022-07-23T01:13:34;16.40;71.60
73572;DHT22;61854;48.510;-2.770;2022-07-23T01:16:00;16.30;71.80
73572;DHT22;61854;48.510;-2.770;2022-07-23T01:18:25;16.40;71.90
73572;DHT22;61854;48.510;-2.770;2022-07-23T01:20:51;16.40;71.80
73572;DHT22;61854;48.510;-2.770;2022-07-23T01:23:17;16.30;72.00
73572;DHT22;61854;48.510;-2.770;2022-07-23T01:25:48;16.30;72.10
73572;DHT22;61854;48.510;-2.770;2022-07-23T01:28:14;16.30;72.20
73572;DHT22;61854;48.510;-2.770;2022-07-23T01:30:40;16.40;72.40
73572;DHT22;61854;48.510;-2.770;2022-07-23T01:33:06;16.30;72.30
73572;DHT22;61854;48.510;-2.770;2022-07-23T01:35:31;16.30;73.30
73572;DHT22;61854;48.510;-2.770;2022-07-23T01:37:57;16.30;72.50
73572;DHT22;61854;48.510;-2.770;2022-07-23T01:40:22;16.40;72.50
73572;DHT22;61854;48.510;-2.770;2022-07-23T01:42:48;16.30;72.60
73572;DHT22;61854;48.510;-2.770;2022-07-23T01:45:14;16.30;72.70
73572;DHT22;61854;48.510;-2.770;2022-07-23T01:47:39;16.30;72.80
73572;DHT22;61854;48.510;-2.770;2022-07-23T01:50:05;16.30;72.70
73572;DHT22;61854;48.510;-2.770;2022-07-23T01:52:31;16.30;72.80
73572;DHT22;61854;48.510;-2.770;2022-07-23T01:54:57;16.30;72.60
73572;DHT22;61854;48.510;-2.770;2022-07-23T01:57:22;16.30;72.60
73572;DHT22;61854;48.510;-2.770;2022-07-23T01:59:48;16.30;72.80
73572;DHT22;61854;48.510;-2.770;2022-07-23T02:02:13;16.20;72.90
73572;DHT22;61854;48.510;-2.770;2022-07-23T02:04:39;16.20;73.00
73572;DHT22;61854;48.510;-2.770;2022-07-23T02:07:05;16.10;73.20
73572;DHT22;61854;48.510;-2.770;2022-07-23T02:09:31;16.10;73.40
73572;DHT22;61854;48.510;-2.770;2022-07-23T02:11:57;16.10;73.60
73572;DHT22;61854;48.510;-2.770;2022-07-23T02:14:24;16.10;74.00
73572;DHT22;61854;48.510;-2.770;2022-07-23T02:16:50;16.10;74.20
73572;DHT22;61854;48.510;-2.770;2022-07-23T02:19:15;16.10;74.20
73572;DHT22;61854;48.510;-2.770;2022-07-23T02:21:41;16.00;75.40
73572;DHT22;61854;48.510;-2.770;2022-07-23T02:24:07;16.00;74.50
73572;DHT22;61854;48.510;-2.770;2022-07-23T02:26:33;16.00;74.70
73572;DHT22;61854;48.510;-2.770;2022-07-23T02:29:03;16.00;75.00
73572;DHT22;61854;48.510;-2.770;2022-07-23T02:31:29;16.00;75.10
73572;DHT22;61854;48.510;-2.770;2022-07-23T02:33:56;16.00;75.20
73572;DHT22;61854;48.510;-2.770;2022-07-23T02:36:22;16.00;75.00
73572;DHT22;61854;48.510;-2.770;2022-07-23T02:38:48;16.00;75.00
73572;DHT22;61854;48.510;-2.770;2022-07-23T02:41:13;16.00;75.20
73572;DHT22;61854;48.510;-2.770;2022-07-23T02:43:39;16.00;75.30
73572;DHT22;61854;48.510;-2.770;2022-07-23T02:46:05;16.00;75.40
73572;DHT22;61854;48.510;-2.770;2022-07-23T02:48:30;16.00;75.50
73572;DHT22;61854;48.510;-2.770;2022-07-23T02:50:56;16.00;75.60
73572;DHT22;61854;48.510;-2.770;2022-07-23T02:53:22;16.00;75.60
73572;DHT22;61854;48.510;-2.770;2022-07-23T02:55:48;15.90;75.60
73572;DHT22;61854;48.510;-2.770;2022-07-23T02:58:14;15.90;75.50
73572;DHT22;61854;48.510;-2.770;2022-07-23T03:00:40;15.90;75.50
73572;DHT22;61854;48.510;-2.770;2022-07-23T03:03:05;15.90;75.60
73572;DHT22;61854;48.510;-2.770;2022-07-23T03:05:32;15.90;75.60
73572;DHT22;61854;48.510;-2.770;2022-07-23T03:07:57;15.80;75.60
73572;DHT22;61854;48.510;-2.770;2022-07-23T03:10:23;15.90;75.60
73572;DHT22;61854;48.510;-2.770;2022-07-23T03:12:48;15.90;75.70
73572;DHT22;61854;48.510;-2.770;2022-07-23T03:15:14;15.80;76.60
73572;DHT22;61854;48.510;-2.770;2022-07-23T03:17:40;15.80;75.70
73572;DHT22;61854;48.510;-2.770;2022-07-23T03:20:06;15.80;75.70
73572;DHT22;61854;48.510;-2.770;2022-07-23T03:22:32;15.70;75.70
73572;DHT22;61854;48.510;-2.770;2022-07-23T03:24:57;15.70;75.70
73572;DHT22;61854;48.510;-2.770;2022-07-23T03:27:27;15.60;75.70
73572;DHT22;61854;48.510;-2.770;2022-07-23T03:29:56;15.60;75.90
73572;DHT22;61854;48.510;-2.770;2022-07-23T03:32:22;15.60;77.00
73572;DHT22;61854;48.510;-2.770;2022-07-23T03:34:48;15.50;76.00
73572;DHT22;61854;48.510;-2.770;2022-07-23T03:37:14;15.40;76.10
73572;DHT22;61854;48.510;-2.770;2022-07-23T03:39:40;15.40;76.30
73572;DHT22;61854;48.510;-2.770;2022-07-23T03:42:09;15.40;76.40
73572;DHT22;61854;48.510;-2.770;2022-07-23T03:44:35;15.40;76.60
73572;DHT22;61854;48.510;-2.770;2022-07-23T03:47:05;15.40;76.60
73572;DHT22;61854;48.510;-2.770;2022-07-23T03:49:32;15.40;76.60
73572;DHT22;61854;48.510;-2.770;2022-07-23T03:51:58;15.40;76.60
73572;DHT22;61854;48.510;-2.770;2022-07-23T03:54:23;15.40;76.80
73572;DHT22;61854;48.510;-2.770;2022-07-23T03:56:49;15.50;76.60
73572;DHT22;61854;48.510;-2.770;2022-07-23T03:59:15;15.50;76.50
73572;DHT22;61854;48.510;-2.770;2022-07-23T04:01:40;15.50;76.40
73572;DHT22;61854;48.510;-2.770;2022-07-23T04:04:06;15.40;76.30
73572;DHT22;61854;48.510;-2.770;2022-07-23T04:06:34;15.40;76.50
73572;DHT22;61854;48.510;-2.770;2022-07-23T04:08:59;15.40;76.70
73572;DHT22;61854;48.510;-2.770;2022-07-23T04:11:25;15.40;76.60
73572;DHT22;61854;48.510;-2.770;2022-07-23T04:13:51;15.30;76.90
73572;DHT22;61854;48.510;-2.770;2022-07-23T04:16:17;15.30;76.80
73572;DHT22;61854;48.510;-2.770;2022-07-23T04:18:42;15.40;77.00
73572;DHT22;61854;48.510;-2.770;2022-07-23T04:21:08;15.40;76.70
73572;DHT22;61854;48.510;-2.770;2022-07-23T04:23:34;15.40;77.70
73572;DHT22;61854;48.510;-2.770;2022-07-23T04:25:59;15.40;76.70
73572;DHT22;61854;48.510;-2.770;2022-07-23T04:28:25;15.40;76.70
73572;DHT22;61854;48.510;-2.770;2022-07-23T04:30:50;15.40;76.70
73572;DHT22;61854;48.510;-2.770;2022-07-23T04:33:16;15.40;77.10
73572;DHT22;61854;48.510;-2.770;2022-07-23T04:35:41;15.40;77.30
73572;DHT22;61854;48.510;-2.770;2022-07-23T04:38:07;15.40;77.00
73572;DHT22;61854;48.510;-2.770;2022-07-23T04:40:33;15.40;77.10
73572;DHT22;61854;48.510;-2.770;2022-07-23T04:42:58;15.40;77.20
73572;DHT22;61854;48.510;-2.770;2022-07-23T04:45:24;15.40;77.20
73572;DHT22;61854;48.510;-2.770;2022-07-23T04:47:50;15.50;77.10
73572;DHT22;61854;48.510;-2.770;2022-07-23T04:50:16;15.50;77.00
73572;DHT22;61854;48.510;-2.770;2022-07-23T04:52:49;15.50;76.70
73572;DHT22;61854;48.510;-2.770;2022-07-23T04:55:15;15.50;76.60
73572;DHT22;61854;48.510;-2.770;2022-07-23T04:57:41;15.50;76.60
73572;DHT22;61854;48.510;-2.770;2022-07-23T05:00:07;15.50;76.60
73572;DHT22;61854;48.510;-2.770;2022-07-23T05:02:33;15.60;76.50
73572;DHT22;61854;48.510;-2.770;2022-07-23T05:04:59;15.60;76.50
73572;DHT22;61854;48.510;-2.770;2022-07-23T05:07:24;15.60;76.30
73572;DHT22;61854;48.510;-2.770;2022-07-23T05:09:50;15.60;76.20
73572;DHT22;61854;48.510;-2.770;2022-07-23T05:12:16;15.60;76.10
73572;DHT22;61854;48.510;-2.770;2022-07-23T05:14:41;15.60;76.10
73572;DHT22;61854;48.510;-2.770;2022-07-23T05:17:07;15.70;76.00
73572;DHT22;61854;48.510;-2.770;2022-07-23T05:19:34;15.70;75.90
73572;DHT22;61854;48.510;-2.770;2022-07-23T05:22:00;15.70;75.80
73572;DHT22;61854;48.510;-2.770;2022-07-23T05:24:26;15.70;75.80
73572;DHT22;61854;48.510;-2.770;2022-07-23T05:26:51;15.70;75.50
73572;DHT22;61854;48.510;-2.770;2022-07-23T05:29:17;15.80;76.40
73572;DHT22;61854;48.510;-2.770;2022-07-23T05:31:43;15.80;75.10
73572;DHT22;61854;48.510;-2.770;2022-07-23T05:34:09;15.90;75.00
73572;DHT22;61854;48.510;-2.770;2022-07-23T05:36:35;15.90;74.70
73572;DHT22;61854;48.510;-2.770;2022-07-23T05:39:01;15.90;74.40
73572;DHT22;61854;48.510;-2.770;2022-07-23T05:41:26;16.00;74.30
73572;DHT22;61854;48.510;-2.770;2022-07-23T05:43:52;16.00;74.10
73572;DHT22;61854;48.510;-2.770;2022-07-23T05:46:18;16.10;73.90
73572;DHT22;61854;48.510;-2.770;2022-07-23T05:48:43;16.20;73.70
73572;DHT22;61854;48.510;-2.770;2022-07-23T05:51:11;16.20;73.50
73572;DHT22;61854;48.510;-2.770;2022-07-23T05:53:37;16.30;73.30
73572;DHT22;61854;48.510;-2.770;2022-07-23T05:56:04;16.30;73.20
73572;DHT22;61854;48.510;-2.770;2022-07-23T05:58:29;16.30;73.10
73572;DHT22;61854;48.510;-2.770;2022-07-23T06:00:55;16.30;72.90
73572;DHT22;61854;48.510;-2.770;2022-07-23T06:03:21;16.40;72.80
73572;DHT22;61854;48.510;-2.770;2022-07-23T06:05:47;16.40;72.80
73572;DHT22;61854;48.510;-2.770;2022-07-23T06:08:12;16.40;72.80
73572;DHT22;61854;48.510;-2.770;2022-07-23T06:10:38;16.40;72.90
73572;DHT22;61854;48.510;-2.770;2022-07-23T06:13:03;16.40;72.80
73572;DHT22;61854;48.510;-2.770;2022-07-23T06:15:29;16.50;72.80
73572;DHT22;61854;48.510;-2.770;2022-07-23T06:17:55;16.60;72.70
73572;DHT22;61854;48.510;-2.770;2022-07-23T06:20:21;16.70;72.30
73572;DHT22;61854;48.510;-2.770;2022-07-23T06:22:47;16.70;72.20
73572;DHT22;61854;48.510;-2.770;2022-07-23T06:25:12;16.70;72.00
73572;DHT22;61854;48.510;-2.770;2022-07-23T06:27:38;16.80;71.90
73572;DHT22;61854;48.510;-2.770;2022-07-23T06:30:04;16.90;71.60
73572;DHT22;61854;48.510;-2.770;2022-07-23T06:32:31;17.00;71.50
73572;DHT22;61854;48.510;-2.770;2022-07-23T06:34:56;17.10;71.20
73572;DHT22;61854;48.510;-2.770;2022-07-23T06:37:22;17.20;70.80
73572;DHT22;61854;48.510;-2.770;2022-07-23T06:39:47;17.40;70.10
73572;DHT22;61854;48.510;-2.770;2022-07-23T06:42:13;17.50;69.80
73572;DHT22;61854;48.510;-2.770;2022-07-23T06:44:40;17.70;69.10
73572;DHT22;61854;48.510;-2.770;2022-07-23T06:47:05;17.70;68.20
73572;DHT22;61854;48.510;-2.770;2022-07-23T06:49:31;17.80;68.20
73572;DHT22;61854;48.510;-2.770;2022-07-23T06:51:57;17.80;68.00
73572;DHT22;61854;48.510;-2.770;2022-07-23T06:54:23;17.80;67.70
73572;DHT22;61854;48.510;-2.770;2022-07-23T06:56:48;17.80;67.20
73572;DHT22;61854;48.510;-2.770;2022-07-23T06:59:14;17.90;67.30
73572;DHT22;61854;48.510;-2.770;2022-07-23T07:01:39;17.90;67.10
73572;DHT22;61854;48.510;-2.770;2022-07-23T07:04:05;18.00;67.40
73572;DHT22;61854;48.510;-2.770;2022-07-23T07:06:31;18.20;67.50
73572;DHT22;61854;48.510;-2.770;2022-07-23T07:08:57;18.40;65.80
73572;DHT22;61854;48.510;-2.770;2022-07-23T07:11:22;18.50;65.50
73572;DHT22;61854;48.510;-2.770;2022-07-23T07:13:49;18.60;64.20
73572;DHT22;61854;48.510;-2.770;2022-07-23T07:16:15;18.60;64.00
73572;DHT22;61854;48.510;-2.770;2022-07-23T07:18:41;18.70;63.60
73572;DHT22;61854;48.510;-2.770;2022-07-23T07:21:06;18.80;63.20
73572;DHT22;61854;48.510;-2.770;2022-07-23T07:23:32;18.80;62.50
73572;DHT22;61854;48.510;-2.770;2022-07-23T07:25:57;18.90;62.30
73572;DHT22;61854;48.510;-2.770;2022-07-23T07:28:23;18.90;61.90
73572;DHT22;61854;48.510;-2.770;2022-07-23T07:30:49;19.00;61.90
73572;DHT22;61854;48.510;-2.770;2022-07-23T07:33:15;19.10;61.70
73572;DHT22;61854;48.510;-2.770;2022-07-23T07:35:40;19.00;60.90
73572;DHT22;61854;48.510;-2.770;2022-07-23T07:38:06;19.10;61.10
73572;DHT22;61854;48.510;-2.770;2022-07-23T07:40:32;19.20;59.80
73572;DHT22;61854;48.510;-2.770;2022-07-23T07:42:57;19.20;60.40
73572;DHT22;61854;48.510;-2.770;2022-07-23T07:45:24;19.30;59.70
73572;DHT22;61854;48.510;-2.770;2022-07-23T07:47:51;19.50;59.50
73572;DHT22;61854;48.510;-2.770;2022-07-23T07:50:19;19.50;59.20
73572;DHT22;61854;48.510;-2.770;2022-07-23T07:52:44;19.50;59.50
73572;DHT22;61854;48.510;-2.770;2022-07-23T07:55:10;19.60;57.30
73572;DHT22;61854;48.510;-2.770;2022-07-23T07:57:36;19.70;57.10
73572;DHT22;61854;48.510;-2.770;2022-07-23T08:00:04;19.80;57.00
73572;DHT22;61854;48.510;-2.770;2022-07-23T08:02:49;19.80;56.40
73572;DHT22;61854;48.510;-2.770;2022-07-23T08:05:21;19.80;56.30
73572;DHT22;61854;48.510;-2.770;2022-07-23T08:07:47;19.80;56.90
73572;DHT22;61854;48.510;-2.770;2022-07-23T08:10:14;19.90;57.00
73572;DHT22;61854;48.510;-2.770;2022-07-23T08:12:41;19.90;56.30
73572;DHT22;61854;48.510;-2.770;2022-07-23T08:15:10;19.90;56.30
73572;DHT22;61854;48.510;-2.770;2022-07-23T08:17:36;19.90;56.40
73572;DHT22;61854;48.510;-2.770;2022-07-23T08:20:03;19.90;56.60
73572;DHT22;61854;48.510;-2.770;2022-07-23T08:23:06;19.90;57.00
73572;DHT22;61854;48.510;-2.770;2022-07-23T08:25:36;19.90;56.50
73572;DHT22;61854;48.510;-2.770;2022-07-23T08:28:05;20.00;55.90
73572;DHT22;61854;48.510;-2.770;2022-07-23T08:30:31;20.00;55.00
73572;DHT22;61854;48.510;-2.770;2022-07-23T08:35:34;20.00;53.90
73572;DHT22;61854;48.510;-2.770;2022-07-23T08:38:02;19.90;53.40
73572;DHT22;61854;48.510;-2.770;2022-07-23T08:40:32;20.10;53.30
73572;DHT22;61854;48.510;-2.770;2022-07-23T08:42:59;20.30;52.90
73572;DHT22;61854;48.510;-2.770;2022-07-23T08:45:26;20.40;52.60
73572;DHT22;61854;48.510;-2.770;2022-07-23T08:47:54;20.50;52.00
73572;DHT22;61854;48.510;-2.770;2022-07-23T08:50:22;20.70;52.40
73572;DHT22;61854;48.510;-2.770;2022-07-23T08:52:52;20.80;52.00
73572;DHT22;61854;48.510;-2.770;2022-07-23T08:55:19;21.00;52.30
73572;DHT22;61854;48.510;-2.770;2022-07-23T08:57:50;21.10;50.90
73572;DHT22;61854;48.510;-2.770;2022-07-23T09:00:17;21.20;49.70
73572;DHT22;61854;48.510;-2.770;2022-07-23T09:02:45;21.30;51.00
73572;DHT22;61854;48.510;-2.770;2022-07-23T09:05:13;21.20;49.60
73572;DHT22;61854;48.510;-2.770;2022-07-23T09:08:15;21.10;49.60
73572;DHT22;61854;48.510;-2.770;2022-07-23T09:11:15;21.20;49.30
73572;DHT22;61854;48.510;-2.770;2022-07-23T09:13:52;21.50;48.50
73572;DHT22;61854;48.510;-2.770;2022-07-23T09:18:58;21.60;42.90
73572;DHT22;61854;48.510;-2.770;2022-07-23T09:26:39;21.40;45.10
73572;DHT22;61854;48.510;-2.770;2022-07-23T09:29:20;21.40;44.70
73572;DHT22;61854;48.510;-2.770;2022-07-23T09:31:48;21.40;45.10
73572;DHT22;61854;48.510;-2.770;2022-07-23T09:34:17;21.50;43.80
73572;DHT22;61854;48.510;-2.770;2022-07-23T09:36:43;21.50;45.20
73572;DHT22;61854;48.510;-2.770;2022-07-23T09:39:10;21.60;45.90
73572;DHT22;61854;48.510;-2.770;2022-07-23T09:41:46;21.70;45.50
73572;DHT22;61854;48.510;-2.770;2022-07-23T09:44:16;21.80;45.40
73572;DHT22;61854;48.510;-2.770;2022-07-23T09:46:45;21.90;46.00
73572;DHT22;61854;48.510;-2.770;2022-07-23T09:56:51;21.50;47.30
73572;DHT22;61854;48.510;-2.770;2022-07-23T09:59:17;21.40;48.40
73572;DHT22;61854;48.510;-2.770;2022-07-23T10:01:44;21.30;47.40
73572;DHT22;61854;48.510;-2.770;2022-07-23T10:04:11;21.30;47.80
73572;DHT22;61854;48.510;-2.770;2022-07-23T10:06:39;21.40;46.80
73572;DHT22;61854;48.510;-2.770;2022-07-23T10:09:06;21.40;46.50
73572;DHT22;61854;48.510;-2.770;2022-07-23T10:11:34;21.50;46.80
73572;DHT22;61854;48.510;-2.770;2022-07-23T10:14:00;21.60;46.80
73572;DHT22;61854;48.510;-2.770;2022-07-23T10:16:29;21.80;46.60
73572;DHT22;61854;48.510;-2.770;2022-07-23T10:18:55;22.10;46.20
73572;DHT22;61854;48.510;-2.770;2022-07-23T10:21:45;22.20;45.70
73572;DHT22;61854;48.510;-2.770;2022-07-23T10:27:42;22.60;45.90
73572;DHT22;61854;48.510;-2.770;2022-07-23T10:29:58;22.60;45.60
73572;DHT22;61854;48.510;-2.770;2022-07-23T10:32:28;22.90;45.00
73572;DHT22;61854;48.510;-2.770;2022-07-23T10:37:42;22.80;45.00
73572;DHT22;61854;48.510;-2.770;2022-07-23T10:40:16;22.80;45.20
73572;DHT22;61854;48.510;-2.770;2022-07-23T10:42:43;22.80;45.00
73572;DHT22;61854;48.510;-2.770;2022-07-23T10:45:32;22.80;44.80
73572;DHT22;61854;48.510;-2.770;2022-07-23T10:48:17;22.60;45.20
73572;DHT22;61854;48.510;-2.770;2022-07-23T10:50:44;22.60;45.30
73572;DHT22;61854;48.510;-2.770;2022-07-23T10:56:14;22.70;45.10
73572;DHT22;61854;48.510;-2.770;2022-07-23T10:58:49;22.70;45.00
73572;DHT22;61854;48.510;-2.770;2022-07-23T11:01:35;22.70;46.30
73572;DHT22;61854;48.510;-2.770;2022-07-23T11:04:02;22.70;44.50
73572;DHT22;61854;48.510;-2.770;2022-07-23T11:17:35;22.90;44.50
73572;DHT22;61854;48.510;-2.770;2022-07-23T11:27:47;23.20;43.50
73572;DHT22;61854;48.510;-2.770;2022-07-23T11:35:37;23.50;42.70
73572;DHT22;61854;48.510;-2.770;2022-07-23T11:38:06;23.50;42.90
73572;DHT22;61854;48.510;-2.770;2022-07-23T11:40:33;23.70;42.70
73572;DHT22;61854;48.510;-2.770;2022-07-23T11:43:01;23.90;41.90
73572;DHT22;61854;48.510;-2.770;2022-07-23T11:45:36;24.00;41.50
73572;DHT22;61854;48.510;-2.770;2022-07-23T11:48:03;24.10;41.50
73572;DHT22;61854;48.510;-2.770;2022-07-23T11:50:29;24.30;41.30
73572;DHT22;61854;48.510;-2.770;2022-07-23T11:52:55;24.40;40.80
73572;DHT22;61854;48.510;-2.770;2022-07-23T11:55:21;24.60;40.30
73572;DHT22;61854;48.510;-2.770;2022-07-23T11:57:47;24.40;40.40
73572;DHT22;61854;48.510;-2.770;2022-07-23T12:00:19;24.40;40.60
73572;DHT22;61854;48.510;-2.770;2022-07-23T12:02:50;24.70;39.60
73572;DHT22;61854;48.510;-2.770;2022-07-23T12:05:21;24.80;39.50
73572;DHT22;61854;48.510;-2.770;2022-07-23T12:07:50;25.20;39.40
73572;DHT22;61854;48.510;-2.770;2022-07-23T12:12:47;25.90;37.30
73572;DHT22;61854;48.510;-2.770;2022-07-23T12:15:16;26.00;36.90
73572;DHT22;61854;48.510;-2.770;2022-07-23T12:17:45;26.00;36.10
73572;DHT22;61854;48.510;-2.770;2022-07-23T12:20:13;26.00;36.30
73572;DHT22;61854;48.510;-2.770;2022-07-23T12:22:43;25.90;35.90
73572;DHT22;61854;48.510;-2.770;2022-07-23T12:25:17;25.90;36.30
73572;DHT22;61854;48.510;-2.770;2022-07-23T12:27:44;26.00;35.70
73572;DHT22;61854;48.510;-2.770;2022-07-23T12:30:24;26.00;35.90
73572;DHT22;61854;48.510;-2.770;2022-07-23T12:32:52;26.20;36.10
73572;DHT22;61854;48.510;-2.770;2022-07-23T12:35:19;26.10;35.70
73572;DHT22;61854;48.510;-2.770;2022-07-23T12:37:46;26.10;36.30
73572;DHT22;61854;48.510;-2.770;2022-07-23T12:40:43;26.00;36.50
73572;DHT22;61854;48.510;-2.770;2022-07-23T12:45:45;26.00;36.60
73572;DHT22;61854;48.510;-2.770;2022-07-23T12:48:17;26.00;36.50
73572;DHT22;61854;48.510;-2.770;2022-07-23T12:50:51;26.10;36.10
73572;DHT22;61854;48.510;-2.770;2022-07-23T12:53:20;26.30;35.80
73572;DHT22;61854;48.510;-2.770;2022-07-23T12:55:46;26.10;35.90
73572;DHT22;61854;48.510;-2.770;2022-07-23T12:58:18;26.20;36.10
73572;DHT22;61854;48.510;-2.770;2022-07-23T13:01:02;26.30;35.30
73572;DHT22;61854;48.510;-2.770;2022-07-23T13:03:29;26.10;36.10
73572;DHT22;61854;48.510;-2.770;2022-07-23T13:05:55;26.20;35.90
73572;DHT22;61854;48.510;-2.770;2022-07-23T13:08:22;26.30;35.80
73572;DHT22;61854;48.510;-2.770;2022-07-23T13:10:48;26.50;35.80
73572;DHT22;61854;48.510;-2.770;2022-07-23T13:13:20;26.40;35.60
73572;DHT22;61854;48.510;-2.770;2022-07-23T13:15:46;26.80;35.30
73572;DHT22;61854;48.510;-2.770;2022-07-23T13:18:11;27.00;35.60
73572;DHT22;61854;48.510;-2.770;2022-07-23T13:20:38;27.00;36.20
73572;DHT22;61854;48.510;-2.770;2022-07-23T13:23:08;27.00;36.30
73572;DHT22;61854;48.510;-2.770;2022-07-23T13:25:33;26.90;36.30
73572;DHT22;61854;48.510;-2.770;2022-07-23T13:27:59;27.10;34.60
73572;DHT22;61854;48.510;-2.770;2022-07-23T13:30:25;27.00;34.70
73572;DHT22;61854;48.510;-2.770;2022-07-23T13:32:51;26.80;36.00
73572;DHT22;61854;48.510;-2.770;2022-07-23T13:35:17;26.50;37.30
73572;DHT22;61854;48.510;-2.770;2022-07-23T13:37:42;26.20;38.10
73572;DHT22;61854;48.510;-2.770;2022-07-23T13:40:08;26.20;38.50
73572;DHT22;61854;48.510;-2.770;2022-07-23T13:42:35;26.20;38.80
73572;DHT22;61854;48.510;-2.770;2022-07-23T13:45:01;26.10;39.50
73572;DHT22;61854;48.510;-2.770;2022-07-23T13:47:26;26.10;40.00
73572;DHT22;61854;48.510;-2.770;2022-07-23T13:49:52;26.00;39.80
73572;DHT22;61854;48.510;-2.770;2022-07-23T13:52:17;25.80;39.80
73572;DHT22;61854;48.510;-2.770;2022-07-23T13:54:43;25.70;40.00
73572;DHT22;61854;48.510;-2.770;2022-07-23T13:57:09;25.60;41.60
73572;DHT22;61854;48.510;-2.770;2022-07-23T13:59:35;25.60;40.90
73572;DHT22;61854;48.510;-2.770;2022-07-23T14:02:04;25.60;43.30
73572;DHT22;61854;48.510;-2.770;2022-07-23T14:04:30;25.60;44.10
73572;DHT22;61854;48.510;-2.770;2022-07-23T14:06:56;25.50;42.70
73572;DHT22;61854;48.510;-2.770;2022-07-23T14:09:22;25.50;42.30
73572;DHT22;61854;48.510;-2.770;2022-07-23T14:11:47;25.50;42.50
73572;DHT22;61854;48.510;-2.770;2022-07-23T14:14:13;25.50;42.60
73572;DHT22;61854;48.510;-2.770;2022-07-23T14:16:39;25.40;42.60
73572;DHT22;61854;48.510;-2.770;2022-07-23T14:19:04;25.30;42.60
73572;DHT22;61854;48.510;-2.770;2022-07-23T14:21:30;25.20;42.80
73572;DHT22;61854;48.510;-2.770;2022-07-23T14:23:56;25.30;42.60
73572;DHT22;61854;48.510;-2.770;2022-07-23T14:26:21;25.20;42.70
73572;DHT22;61854;48.510;-2.770;2022-07-23T14:28:47;25.10;42.80
73572;DHT22;61854;48.510;-2.770;2022-07-23T14:31:12;25.00;43.20
73572;DHT22;61854;48.510;-2.770;2022-07-23T14:33:38;25.10;43.10
73572;DHT22;61854;48.510;-2.770;2022-07-23T14:36:04;25.20;42.00
73572;DHT22;61854;48.510;-2.770;2022-07-23T14:38:29;25.20;42.30
73572;DHT22;61854;48.510;-2.770;2022-07-23T14:40:56;25.40;41.70
73572;DHT22;61854;48.510;-2.770;2022-07-23T14:43:22;25.50;40.90
73572;DHT22;61854;48.510;-2.770;2022-07-23T14:45:49;25.50;40.60
73572;DHT22;61854;48.510;-2.770;2022-07-23T14:48:14;25.60;40.80
73572;DHT22;61854;48.510;-2.770;2022-07-23T14:50:40;25.60;41.00
73572;DHT22;61854;48.510;-2.770;2022-07-23T14:53:07;25.70;40.70
73572;DHT22;61854;48.510;-2.770;2022-07-23T14:55:33;25.80;41.30
73572;DHT22;61854;48.510;-2.770;2022-07-23T14:57:59;26.00;40.10
73572;DHT22;61854;48.510;-2.770;2022-07-23T15:00:25;26.40;38.90
73572;DHT22;61854;48.510;-2.770;2022-07-23T15:02:52;26.70;38.60
73572;DHT22;61854;48.510;-2.770;2022-07-23T15:05:18;27.00;39.40
73572;DHT22;61854;48.510;-2.770;2022-07-23T15:07:44;27.30;38.50
73572;DHT22;61854;48.510;-2.770;2022-07-23T15:10:09;27.90;36.80
73572;DHT22;61854;48.510;-2.770;2022-07-23T15:12:35;28.30;35.20
73572;DHT22;61854;48.510;-2.770;2022-07-23T15:15:01;28.60;34.50
73572;DHT22;61854;48.510;-2.770;2022-07-23T15:17:26;28.40;34.60
73572;DHT22;61854;48.510;-2.770;2022-07-23T15:19:52;28.10;35.60
73572;DHT22;61854;48.510;-2.770;2022-07-23T15:22:18;27.70;36.40
73572;DHT22;61854;48.510;-2.770;2022-07-23T15:24:43;27.70;37.10
73572;DHT22;61854;48.510;-2.770;2022-07-23T15:27:09;27.40;37.90
73572;DHT22;61854;48.510;-2.770;2022-07-23T15:29:35;27.20;38.50
73572;DHT22;61854;48.510;-2.770;2022-07-23T15:32:01;27.80;37.80
73572;DHT22;61854;48.510;-2.770;2022-07-23T15:34:27;29.00;35.90
73572;DHT22;61854;48.510;-2.770;2022-07-23T15:36:53;30.10;33.90
73572;DHT22;61854;48.510;-2.770;2022-07-23T15:39:19;30.90;32.40
73572;DHT22;61854;48.510;-2.770;2022-07-23T15:41:44;31.40;30.90
73572;DHT22;61854;48.510;-2.770;2022-07-23T15:44:10;31.20;31.10
73572;DHT22;61854;48.510;-2.770;2022-07-23T15:46:36;31.60;31.20
73572;DHT22;61854;48.510;-2.770;2022-07-23T15:49:01;32.00;29.60
73572;DHT22;61854;48.510;-2.770;2022-07-23T15:51:27;32.10;29.40
73572;DHT22;61854;48.510;-2.770;2022-07-23T15:53:54;31.80;29.50
73572;DHT22;61854;48.510;-2.770;2022-07-23T15:56:20;32.00;29.10
73572;DHT22;61854;48.510;-2.770;2022-07-23T15:58:45;32.30;29.20
73572;DHT22;61854;48.510;-2.770;2022-07-23T16:01:11;31.90;29.60
73572;DHT22;61854;48.510;-2.770;2022-07-23T16:03:37;32.00;29.30
73572;DHT22;61854;48.510;-2.770;2022-07-23T16:06:04;32.10;29.30
73572;DHT22;61854;48.510;-2.770;2022-07-23T16:08:31;32.20;29.30
73572;DHT22;61854;48.510;-2.770;2022-07-23T16:10:56;32.50;28.50